sensor_id;sensor_type;location;lat;lon;timestamp;P1;durP1;ratioP1;P2;durP2;ratioP2
10303;SDS011;5197;48.152;8.590;2022-07-01T00:02:04;1.07;;;1.07;;
10303;SDS011;5197;48.152;8.590;2022-07-01T00:04:32;1.20;;;1.20;;
10303;SDS011;5197;48.152;8.590;2022-07-01T00:06:59;1.10;;;1.10;;
10303;SDS011;5197;48.152;8.590;2022-07-01T00:09:26;1.33;;;1.20;;
10303;SDS011;5197;48.152;8.590;2022-07-01T00:11:53;3.20;;;1.10;;
10303;SDS011;5197;48.152;8.590;2022-07-01T00:14:20;1.40;;;1.30;;
10303;SDS011;5197;48.152;8.590;2022-07-01T00:16:49;1.60;;;1.27;;
10303;SDS011;5197;48.152;8.590;2022-07-01T00:19:17;2.00;;;1.20;;
10303;SDS011;5197;48.152;8.590;2022-07-01T00:21:44;1.47;;;1.37;;
10303;SDS011;5197;48.152;8.590;2022-07-01T00:24:12;1.47;;;1.13;;
10303;SDS011;5197;48.152;8.590;2022-07-01T00:26:39;1.10;;;1.10;;
10303;SDS011;5197;48.152;8.590;2022-07-01T00:29:06;1.37;;;1.20;;
10303;SDS011;5197;48.152;8.590;2022-07-01T00:31:33;1.30;;;1.20;;
10303;SDS011;5197;48.152;8.590;2022-07-01T00:34:00;2.20;;;1.10;;
10303;SDS011;5197;48.152;8.590;2022-07-01T00:36:27;2.53;;;1.13;;
10303;SDS011;5197;48.152;8.590;2022-07-01T00:38:57;1.40;;;1.30;;
10303;SDS011;5197;48.152;8.590;2022-07-01T00:41:25;0.93;;;0.93;;
10303;SDS011;5197;48.152;8.590;2022-07-01T00:43:52;1.20;;;1.20;;
10303;SDS011;5197;48.152;8.590;2022-07-01T00:46:21;1.43;;;1.33;;
10303;SDS011;5197;48.152;8.590;2022-07-01T00:48:52;1.30;;;1.13;;
10303;SDS011;5197;48.152;8.590;2022-07-01T00:51:21;1.73;;;1.30;;
10303;SDS011;5197;48.152;8.590;2022-07-01T00:53:49;1.00;;;1.00;;
10303;SDS011;5197;48.152;8.590;2022-07-01T00:56:17;1.00;;;1.00;;
10303;SDS011;5197;48.152;8.590;2022-07-01T00:58:45;2.97;;;1.30;;
10303;SDS011;5197;48.152;8.590;2022-07-01T01:01:12;0.80;;;0.80;;
10303;SDS011;5197;48.152;8.590;2022-07-01T01:03:39;1.20;;;1.20;;
10303;SDS011;5197;48.152;8.590;2022-07-01T01:06:07;1.07;;;1.00;;
10303;SDS011;5197;48.152;8.590;2022-07-01T01:08:35;1.10;;;1.10;;
10303;SDS011;5197;48.152;8.590;2022-07-01T01:11:03;1.27;;;1.20;;
10303;SDS011;5197;48.152;8.590;2022-07-01T01:13:30;1.30;;;1.20;;
10303;SDS011;5197;48.152;8.590;2022-07-01T01:15:58;1.80;;;1.70;;
10303;SDS011;5197;48.152;8.590;2022-07-01T01:18:25;1.60;;;1.60;;
10303;SDS011;5197;48.152;8.590;2022-07-01T01:20:52;4.57;;;1.50;;
10303;SDS011;5197;48.152;8.590;2022-07-01T01:23:20;1.17;;;1.10;;
10303;SDS011;5197;48.152;8.590;2022-07-01T01:25:47;1.10;;;1.10;;
10303;SDS011;5197;48.152;8.590;2022-07-01T01:28:14;1.50;;;1.40;;
10303;SDS011;5197;48.152;8.590;2022-07-01T01:30:42;1.47;;;1.37;;
10303;SDS011;5197;48.152;8.590;2022-07-01T01:33:09;1.60;;;1.50;;
10303;SDS011;5197;48.152;8.590;2022-07-01T01:35:38;1.93;;;1.40;;
10303;SDS011;5197;48.152;8.590;2022-07-01T01:38:05;1.40;;;1.40;;
10303;SDS011;5197;48.152;8.590;2022-07-01T01:40:32;1.40;;;1.40;;
10303;SDS011;5197;48.152;8.590;2022-07-01T01:42:59;2.57;;;1.40;;
10303;SDS011;5197;48.152;8.590;2022-07-01T01:45:26;2.43;;;1.50;;
10303;SDS011;5197;48.152;8.590;2022-07-01T01:47:54;1.67;;;1.63;;
10303;SDS011;5197;48.152;8.590;2022-07-01T01:50:21;1.83;;;1.50;;
10303;SDS011;5197;48.152;8.590;2022-07-01T01:52:48;2.97;;;1.60;;
10303;SDS011;5197;48.152;8.590;2022-07-01T01:55:15;2.40;;;1.60;;
10303;SDS011;5197;48.152;8.590;2022-07-01T01:57:42;1.60;;;1.50;;
10303;SDS011;5197;48.152;8.590;2022-07-01T02:00:09;1.70;;;1.70;;
10303;SDS011;5197;48.152;8.590;2022-07-01T02:02:37;2.33;;;1.50;;
10303;SDS011;5197;48.152;8.590;2022-07-01T02:05:05;2.40;;;1.77;;
10303;SDS011;5197;48.152;8.590;2022-07-01T02:07:36;1.53;;;1.43;;
10303;SDS011;5197;48.152;8.590;2022-07-01T02:10:04;1.30;;;1.30;;
10303;SDS011;5197;48.152;8.590;2022-07-01T02:12:32;2.07;;;1.70;;
10303;SDS011;5197;48.152;8.590;2022-07-01T02:14:59;1.37;;;1.37;;
10303;SDS011;5197;48.152;8.590;2022-07-01T02:17:26;2.10;;;1.60;;
10303;SDS011;5197;48.152;8.590;2022-07-01T02:19:53;1.87;;;1.67;;
10303;SDS011;5197;48.152;8.590;2022-07-01T02:22:20;1.97;;;1.43;;
10303;SDS011;5197;48.152;8.590;2022-07-01T02:24:47;1.43;;;1.43;;
10303;SDS011;5197;48.152;8.590;2022-07-01T02:27:14;1.37;;;1.37;;
10303;SDS011;5197;48.152;8.590;2022-07-01T02:29:41;1.20;;;1.20;;
10303;SDS011;5197;48.152;8.590;2022-07-01T02:32:08;2.00;;;1.03;;
10303;SDS011;5197;48.152;8.590;2022-07-01T02:34:35;2.97;;;1.10;;
10303;SDS011;5197;48.152;8.590;2022-07-01T02:37:03;3.03;;;1.20;;
10303;SDS011;5197;48.152;8.590;2022-07-01T02:39:31;2.97;;;1.20;;
10303;SDS011;5197;48.152;8.590;2022-07-01T02:41:58;0.70;;;0.70;;
10303;SDS011;5197;48.152;8.590;2022-07-01T02:44:57;3.07;;;0.70;;
10303;SDS011;5197;48.152;8.590;2022-07-01T02:47:42;0.77;;;0.77;;
10303;SDS011;5197;48.152;8.590;2022-07-01T02:50:11;0.90;;;0.90;;
10303;SDS011;5197;48.152;8.590;2022-07-01T02:52:45;1.07;;;1.00;;
10303;SDS011;5197;48.152;8.590;2022-07-01T02:55:12;0.80;;;0.80;;
10303;SDS011;5197;48.152;8.590;2022-07-01T02:57:40;0.97;;;0.97;;
10303;SDS011;5197;48.152;8.590;2022-07-01T03:00:09;1.33;;;0.80;;
10303;SDS011;5197;48.152;8.590;2022-07-01T03:02:39;2.60;;;1.03;;
10303;SDS011;5197;48.152;8.590;2022-07-01T03:05:07;1.10;;;1.10;;
10303;SDS011;5197;48.152;8.590;2022-07-01T03:07:35;0.90;;;0.90;;
10303;SDS011;5197;48.152;8.590;2022-07-01T03:10:05;0.90;;;0.90;;
10303;SDS011;5197;48.152;8.590;2022-07-01T03:12:34;0.90;;;0.90;;
10303;SDS011;5197;48.152;8.590;2022-07-01T03:15:02;2.67;;;1.40;;
10303;SDS011;5197;48.152;8.590;2022-07-01T03:17:30;1.30;;;1.20;;
10303;SDS011;5197;48.152;8.590;2022-07-01T03:20:05;1.40;;;1.30;;
10303;SDS011;5197;48.152;8.590;2022-07-01T03:22:34;1.13;;;1.10;;
10303;SDS011;5197;48.152;8.590;2022-07-01T03:25:02;1.23;;;1.13;;
10303;SDS011;5197;48.152;8.590;2022-07-01T03:27:31;3.17;;;1.50;;
10303;SDS011;5197;48.152;8.590;2022-07-01T03:29:59;0.83;;;0.83;;
10303;SDS011;5197;48.152;8.590;2022-07-01T03:32:27;0.70;;;0.70;;
10303;SDS011;5197;48.152;8.590;2022-07-01T03:34:54;0.80;;;0.80;;
10303;SDS011;5197;48.152;8.590;2022-07-01T03:37:21;0.80;;;0.80;;
10303;SDS011;5197;48.152;8.590;2022-07-01T03:39:49;1.00;;;1.00;;
10303;SDS011;5197;48.152;8.590;2022-07-01T03:42:16;1.43;;;0.80;;
10303;SDS011;5197;48.152;8.590;2022-07-01T03:44:44;0.50;;;0.50;;
10303;SDS011;5197;48.152;8.590;2022-07-01T03:47:11;0.70;;;0.70;;
10303;SDS011;5197;48.152;8.590;2022-07-01T03:49:38;1.10;;;1.10;;
10303;SDS011;5197;48.152;8.590;2022-07-01T03:52:05;1.20;;;1.20;;
10303;SDS011;5197;48.152;8.590;2022-07-01T03:54:33;2.53;;;1.20;;
10303;SDS011;5197;48.152;8.590;2022-07-01T03:57:06;1.10;;;1.10;;
10303;SDS011;5197;48.152;8.590;2022-07-01T03:59:38;1.10;;;1.00;;
10303;SDS011;5197;48.152;8.590;2022-07-01T04:02:06;1.20;;;1.20;;
10303;SDS011;5197;48.152;8.590;2022-07-01T04:04:34;1.20;;;1.20;;
10303;SDS011;5197;48.152;8.590;2022-07-01T04:07:03;1.30;;;1.30;;
10303;SDS011;5197;48.152;8.590;2022-07-01T04:09:32;1.23;;;1.13;;
10303;SDS011;5197;48.152;8.590;2022-07-01T04:11:59;1.83;;;1.20;;
10303;SDS011;5197;48.152;8.590;2022-07-01T04:14:27;1.00;;;1.00;;
10303;SDS011;5197;48.152;8.590;2022-07-01T04:16:54;1.90;;;0.63;;
10303;SDS011;5197;48.152;8.590;2022-07-01T04:19:21;0.70;;;0.70;;
10303;SDS011;5197;48.152;8.590;2022-07-01T04:21:48;0.70;;;0.70;;
10303;SDS011;5197;48.152;8.590;2022-07-01T04:24:34;3.30;;;0.90;;
10303;SDS011;5197;48.152;8.590;2022-07-01T04:27:01;1.37;;;0.60;;
10303;SDS011;5197;48.152;8.590;2022-07-01T04:29:29;1.03;;;1.00;;
10303;SDS011;5197;48.152;8.590;2022-07-01T04:31:57;0.80;;;0.80;;
10303;SDS011;5197;48.152;8.590;2022-07-01T04:34:24;0.93;;;0.80;;
10303;SDS011;5197;48.152;8.590;2022-07-01T04:36:51;1.00;;;0.60;;
10303;SDS011;5197;48.152;8.590;2022-07-01T04:39:18;0.70;;;0.70;;
10303;SDS011;5197;48.152;8.590;2022-07-01T04:41:45;0.43;;;0.43;;
10303;SDS011;5197;48.152;8.590;2022-07-01T04:44:31;1.53;;;0.63;;
10303;SDS011;5197;48.152;8.590;2022-07-01T04:47:08;1.10;;;0.60;;
10303;SDS011;5197;48.152;8.590;2022-07-01T04:49:35;3.50;;;0.63;;
10303;SDS011;5197;48.152;8.590;2022-07-01T04:52:02;2.53;;;0.50;;
10303;SDS011;5197;48.152;8.590;2022-07-01T04:54:30;4.17;;;0.70;;
10303;SDS011;5197;48.152;8.590;2022-07-01T04:56:57;0.47;;;0.47;;
10303;SDS011;5197;48.152;8.590;2022-07-01T04:59:24;1.67;;;0.40;;
10303;SDS011;5197;48.152;8.590;2022-07-01T05:01:51;0.40;;;0.40;;
10303;SDS011;5197;48.152;8.590;2022-07-01T05:04:18;0.77;;;0.30;;
10303;SDS011;5197;48.152;8.590;2022-07-01T05:06:46;0.20;;;0.20;;
10303;SDS011;5197;48.152;8.590;2022-07-01T05:09:14;0.73;;;0.30;;
10303;SDS011;5197;48.152;8.590;2022-07-01T05:11:42;1.70;;;0.40;;
10303;SDS011;5197;48.152;8.590;2022-07-01T05:14:11;0.40;;;0.33;;
10303;SDS011;5197;48.152;8.590;2022-07-01T05:16:38;0.10;;;0.10;;
10303;SDS011;5197;48.152;8.590;2022-07-01T05:19:05;0.30;;;0.30;;
10303;SDS011;5197;48.152;8.590;2022-07-01T05:21:51;0.30;;;0.20;;
10303;SDS011;5197;48.152;8.590;2022-07-01T05:24:30;0.47;;;0.40;;
10303;SDS011;5197;48.152;8.590;2022-07-01T05:26:59;0.30;;;0.30;;
10303;SDS011;5197;48.152;8.590;2022-07-01T05:29:27;0.30;;;0.30;;
10303;SDS011;5197;48.152;8.590;2022-07-01T05:31:55;0.50;;;0.50;;
10303;SDS011;5197;48.152;8.590;2022-07-01T05:34:22;0.30;;;0.30;;
10303;SDS011;5197;48.152;8.590;2022-07-01T05:36:50;0.50;;;0.50;;
10303;SDS011;5197;48.152;8.590;2022-07-01T05:39:17;0.80;;;0.23;;
10303;SDS011;5197;48.152;8.590;2022-07-01T05:41:44;1.90;;;0.30;;
10303;SDS011;5197;48.152;8.590;2022-07-01T05:44:13;0.50;;;0.50;;
10303;SDS011;5197;48.152;8.590;2022-07-01T05:46:41;0.30;;;0.30;;
10303;SDS011;5197;48.152;8.590;2022-07-01T05:49:08;0.53;;;0.30;;
10303;SDS011;5197;48.152;8.590;2022-07-01T05:51:41;0.20;;;0.20;;
10303;SDS011;5197;48.152;8.590;2022-07-01T05:54:08;0.80;;;0.47;;
10303;SDS011;5197;48.152;8.590;2022-07-01T05:56:35;0.40;;;0.40;;
10303;SDS011;5197;48.152;8.590;2022-07-01T05:59:02;0.60;;;0.40;;
10303;SDS011;5197;48.152;8.590;2022-07-01T06:01:29;1.80;;;0.37;;
10303;SDS011;5197;48.152;8.590;2022-07-01T06:03:56;0.40;;;0.40;;
10303;SDS011;5197;48.152;8.590;2022-07-01T06:06:24;2.20;;;0.53;;
10303;SDS011;5197;48.152;8.590;2022-07-01T06:08:51;2.50;;;0.50;;
10303;SDS011;5197;48.152;8.590;2022-07-01T06:11:18;0.40;;;0.40;;
10303;SDS011;5197;48.152;8.590;2022-07-01T06:13:45;2.10;;;0.40;;
10303;SDS011;5197;48.152;8.590;2022-07-01T06:16:12;0.30;;;0.30;;
10303;SDS011;5197;48.152;8.590;2022-07-01T06:18:39;1.13;;;0.40;;
10303;SDS011;5197;48.152;8.590;2022-07-01T06:21:06;1.23;;;0.27;;
10303;SDS011;5197;48.152;8.590;2022-07-01T06:23:33;1.00;;;0.30;;
10303;SDS011;5197;48.152;8.590;2022-07-01T06:26:00;0.30;;;0.30;;
10303;SDS011;5197;48.152;8.590;2022-07-01T06:28:27;1.60;;;0.53;;
10303;SDS011;5197;48.152;8.590;2022-07-01T06:30:56;0.40;;;0.40;;
10303;SDS011;5197;48.152;8.590;2022-07-01T06:33:24;1.00;;;0.27;;
10303;SDS011;5197;48.152;8.590;2022-07-01T06:35:53;0.27;;;0.23;;
10303;SDS011;5197;48.152;8.590;2022-07-01T06:38:20;0.50;;;0.30;;
10303;SDS011;5197;48.152;8.590;2022-07-01T06:40:47;1.20;;;0.23;;
10303;SDS011;5197;48.152;8.590;2022-07-01T06:43:34;1.87;;;0.37;;
10303;SDS011;5197;48.152;8.590;2022-07-01T06:46:02;0.67;;;0.40;;
10303;SDS011;5197;48.152;8.590;2022-07-01T06:48:30;0.40;;;0.20;;
10303;SDS011;5197;48.152;8.590;2022-07-01T06:50:57;0.40;;;0.40;;
10303;SDS011;5197;48.152;8.590;2022-07-01T06:53:24;0.40;;;0.40;;
10303;SDS011;5197;48.152;8.590;2022-07-01T06:55:51;1.33;;;0.30;;
10303;SDS011;5197;48.152;8.590;2022-07-01T06:58:18;0.40;;;0.40;;
10303;SDS011;5197;48.152;8.590;2022-07-01T07:00:45;0.30;;;0.30;;
10303;SDS011;5197;48.152;8.590;2022-07-01T07:03:12;0.30;;;0.30;;
10303;SDS011;5197;48.152;8.590;2022-07-01T07:05:40;0.37;;;0.33;;
10303;SDS011;5197;48.152;8.590;2022-07-01T07:08:07;0.30;;;0.30;;
10303;SDS011;5197;48.152;8.590;2022-07-01T07:10:34;0.77;;;0.60;;
10303;SDS011;5197;48.152;8.590;2022-07-01T07:13:01;3.60;;;0.57;;
10303;SDS011;5197;48.152;8.590;2022-07-01T07:15:29;0.57;;;0.40;;
10303;SDS011;5197;48.152;8.590;2022-07-01T07:17:56;0.53;;;0.53;;
10303;SDS011;5197;48.152;8.590;2022-07-01T07:20:24;0.30;;;0.30;;
10303;SDS011;5197;48.152;8.590;2022-07-01T07:22:51;0.50;;;0.50;;
10303;SDS011;5197;48.152;8.590;2022-07-01T07:25:19;0.33;;;0.33;;
10303;SDS011;5197;48.152;8.590;2022-07-01T07:27:46;0.50;;;0.50;;
10303;SDS011;5197;48.152;8.590;2022-07-01T07:30:13;0.70;;;0.70;;
10303;SDS011;5197;48.152;8.590;2022-07-01T07:32:41;0.50;;;0.50;;
10303;SDS011;5197;48.152;8.590;2022-07-01T07:35:08;0.60;;;0.60;;
10303;SDS011;5197;48.152;8.590;2022-07-01T07:37:36;0.40;;;0.40;;
10303;SDS011;5197;48.152;8.590;2022-07-01T07:40:05;0.87;;;0.60;;
10303;SDS011;5197;48.152;8.590;2022-07-01T07:42:34;0.50;;;0.50;;
10303;SDS011;5197;48.152;8.590;2022-07-01T07:45:01;1.77;;;0.47;;
10303;SDS011;5197;48.152;8.590;2022-07-01T07:47:29;0.50;;;0.50;;
10303;SDS011;5197;48.152;8.590;2022-07-01T07:49:56;1.27;;;0.50;;
10303;SDS011;5197;48.152;8.590;2022-07-01T07:52:23;0.53;;;0.40;;
10303;SDS011;5197;48.152;8.590;2022-07-01T07:54:50;0.57;;;0.50;;
10303;SDS011;5197;48.152;8.590;2022-07-01T07:57:17;0.70;;;0.70;;
10303;SDS011;5197;48.152;8.590;2022-07-01T07:59:44;0.60;;;0.60;;
10303;SDS011;5197;48.152;8.590;2022-07-01T08:02:11;1.23;;;0.93;;
10303;SDS011;5197;48.152;8.590;2022-07-01T08:04:38;0.63;;;0.57;;
10303;SDS011;5197;48.152;8.590;2022-07-01T08:07:12;1.47;;;0.70;;
10303;SDS011;5197;48.152;8.590;2022-07-01T08:09:40;1.23;;;0.80;;
10303;SDS011;5197;48.152;8.590;2022-07-01T08:12:12;0.73;;;0.50;;
10303;SDS011;5197;48.152;8.590;2022-07-01T08:14:39;1.10;;;0.70;;
10303;SDS011;5197;48.152;8.590;2022-07-01T08:17:06;0.70;;;0.70;;
10303;SDS011;5197;48.152;8.590;2022-07-01T08:19:33;1.67;;;1.10;;
10303;SDS011;5197;48.152;8.590;2022-07-01T08:22:00;1.33;;;0.73;;
10303;SDS011;5197;48.152;8.590;2022-07-01T08:24:27;1.13;;;0.80;;
10303;SDS011;5197;48.152;8.590;2022-07-01T08:26:54;2.03;;;0.80;;
10303;SDS011;5197;48.152;8.590;2022-07-01T08:29:21;0.73;;;0.60;;
10303;SDS011;5197;48.152;8.590;2022-07-01T08:31:48;0.60;;;0.60;;
10303;SDS011;5197;48.152;8.590;2022-07-01T08:34:19;0.60;;;0.60;;
10303;SDS011;5197;48.152;8.590;2022-07-01T08:36:47;0.60;;;0.60;;
10303;SDS011;5197;48.152;8.590;2022-07-01T08:39:14;0.53;;;0.53;;
10303;SDS011;5197;48.152;8.590;2022-07-01T08:41:41;1.17;;;0.80;;
10303;SDS011;5197;48.152;8.590;2022-07-01T08:44:08;0.87;;;0.70;;
10303;SDS011;5197;48.152;8.590;2022-07-01T08:46:35;1.40;;;0.80;;
10303;SDS011;5197;48.152;8.590;2022-07-01T08:49:02;1.13;;;0.73;;
10303;SDS011;5197;48.152;8.590;2022-07-01T08:51:29;0.77;;;0.77;;
10303;SDS011;5197;48.152;8.590;2022-07-01T08:53:57;2.03;;;0.87;;
10303;SDS011;5197;48.152;8.590;2022-07-01T08:56:23;0.80;;;0.80;;
10303;SDS011;5197;48.152;8.590;2022-07-01T08:59:10;0.53;;;0.53;;
10303;SDS011;5197;48.152;8.590;2022-07-01T09:01:39;0.93;;;0.77;;
10303;SDS011;5197;48.152;8.590;2022-07-01T09:04:14;2.43;;;0.70;;
10303;SDS011;5197;48.152;8.590;2022-07-01T09:06:46;0.47;;;0.47;;
10303;SDS011;5197;48.152;8.590;2022-07-01T09:09:14;1.87;;;0.77;;
10303;SDS011;5197;48.152;8.590;2022-07-01T09:11:47;1.00;;;0.77;;
10303;SDS011;5197;48.152;8.590;2022-07-01T09:14:22;0.63;;;0.63;;
10303;SDS011;5197;48.152;8.590;2022-07-01T09:16:58;1.07;;;0.90;;
10303;SDS011;5197;48.152;8.590;2022-07-01T09:19:27;1.17;;;0.70;;
10303;SDS011;5197;48.152;8.590;2022-07-01T09:21:58;0.30;;;0.30;;
10303;SDS011;5197;48.152;8.590;2022-07-01T09:27:01;2.30;;;0.70;;
10303;SDS011;5197;48.152;8.590;2022-07-01T09:29:36;1.30;;;0.73;;
10303;SDS011;5197;48.152;8.590;2022-07-01T09:32:06;0.53;;;0.40;;
10303;SDS011;5197;48.152;8.590;2022-07-01T09:34:36;0.50;;;0.50;;
10303;SDS011;5197;48.152;8.590;2022-07-01T09:37:13;0.47;;;0.47;;
10303;SDS011;5197;48.152;8.590;2022-07-01T09:39:42;1.00;;;0.70;;
10303;SDS011;5197;48.152;8.590;2022-07-01T09:42:09;0.83;;;0.43;;
10303;SDS011;5197;48.152;8.590;2022-07-01T09:44:59;0.57;;;0.57;;
10303;SDS011;5197;48.152;8.590;2022-07-01T09:47:34;1.33;;;0.70;;
10303;SDS011;5197;48.152;8.590;2022-07-01T09:50:04;0.50;;;0.50;;
10303;SDS011;5197;48.152;8.590;2022-07-01T09:52:32;0.73;;;0.67;;
10303;SDS011;5197;48.152;8.590;2022-07-01T09:55:03;1.13;;;0.67;;
10303;SDS011;5197;48.152;8.590;2022-07-01T09:57:33;0.50;;;0.50;;
10303;SDS011;5197;48.152;8.590;2022-07-01T10:00:03;0.50;;;0.50;;
10303;SDS011;5197;48.152;8.590;2022-07-01T10:02:30;0.70;;;0.70;;
10303;SDS011;5197;48.152;8.590;2022-07-01T10:07:44;0.50;;;0.50;;
10303;SDS011;5197;48.152;8.590;2022-07-01T10:13:09;1.07;;;1.00;;
10303;SDS011;5197;48.152;8.590;2022-07-01T10:15:40;1.33;;;0.57;;
10303;SDS011;5197;48.152;8.590;2022-07-01T10:18:18;1.27;;;0.70;;
10303;SDS011;5197;48.152;8.590;2022-07-01T10:20:48;1.57;;;0.60;;
10303;SDS011;5197;48.152;8.590;2022-07-01T10:23:15;1.40;;;0.73;;
10303;SDS011;5197;48.152;8.590;2022-07-01T10:25:46;0.60;;;0.60;;
10303;SDS011;5197;48.152;8.590;2022-07-01T10:33:30;0.53;;;0.53;;
10303;SDS011;5197;48.152;8.590;2022-07-01T10:41:37;0.47;;;0.47;;
10303;SDS011;5197;48.152;8.590;2022-07-01T10:44:13;0.50;;;0.50;;
10303;SDS011;5197;48.152;8.590;2022-07-01T10:49:20;0.40;;;0.40;;
10303;SDS011;5197;48.152;8.590;2022-07-01T10:52:08;0.47;;;0.47;;
10303;SDS011;5197;48.152;8.590;2022-07-01T10:59:46;0.63;;;0.40;;
10303;SDS011;5197;48.152;8.590;2022-07-01T11:02:18;0.67;;;0.30;;
10303;SDS011;5197;48.152;8.590;2022-07-01T11:04:49;2.30;;;0.50;;
10303;SDS011;5197;48.152;8.590;2022-07-01T11:07:19;0.23;;;0.23;;
10303;SDS011;5197;48.152;8.590;2022-07-01T11:09:47;0.87;;;0.50;;
10303;SDS011;5197;48.152;8.590;2022-07-01T11:12:17;0.20;;;0.20;;
10303;SDS011;5197;48.152;8.590;2022-07-01T11:14:46;0.87;;;0.87;;
10303;SDS011;5197;48.152;8.590;2022-07-01T11:17:13;0.93;;;0.30;;
10303;SDS011;5197;48.152;8.590;2022-07-01T11:19:42;0.40;;;0.40;;
10303;SDS011;5197;48.152;8.590;2022-07-01T11:22:20;1.17;;;0.20;;
10303;SDS011;5197;48.152;8.590;2022-07-01T11:24:57;0.37;;;0.27;;
10303;SDS011;5197;48.152;8.590;2022-07-01T11:27:32;0.20;;;0.20;;
10303;SDS011;5197;48.152;8.590;2022-07-01T11:30:09;0.50;;;0.50;;
10303;SDS011;5197;48.152;8.590;2022-07-01T11:32:49;0.30;;;0.30;;
10303;SDS011;5197;48.152;8.590;2022-07-01T11:35:27;1.10;;;0.40;;
10303;SDS011;5197;48.152;8.590;2022-07-01T11:38:17;0.33;;;0.33;;
10303;SDS011;5197;48.152;8.590;2022-07-01T11:41:06;1.27;;;0.60;;
10303;SDS011;5197;48.152;8.590;2022-07-01T11:43:36;0.93;;;0.67;;
10303;SDS011;5197;48.152;8.590;2022-07-01T11:46:05;1.27;;;0.63;;
10303;SDS011;5197;48.152;8.590;2022-07-01T11:51:05;1.20;;;0.53;;
10303;SDS011;5197;48.152;8.590;2022-07-01T11:53:47;0.73;;;0.70;;
10303;SDS011;5197;48.152;8.590;2022-07-01T11:56:17;0.70;;;0.67;;
10303;SDS011;5197;48.152;8.590;2022-07-01T11:58:54;3.73;;;1.03;;
10303;SDS011;5197;48.152;8.590;2022-07-01T12:01:23;0.63;;;0.63;;
10303;SDS011;5197;48.152;8.590;2022-07-01T12:03:56;0.77;;;0.70;;
10303;SDS011;5197;48.152;8.590;2022-07-01T12:06:26;0.70;;;0.70;;
10303;SDS011;5197;48.152;8.590;2022-07-01T12:08:54;1.60;;;0.90;;
10303;SDS011;5197;48.152;8.590;2022-07-01T12:11:24;1.77;;;0.60;;
10303;SDS011;5197;48.152;8.590;2022-07-01T12:13:53;0.40;;;0.40;;
10303;SDS011;5197;48.152;8.590;2022-07-01T12:16:23;0.60;;;0.60;;
10303;SDS011;5197;48.152;8.590;2022-07-01T12:21:18;4.70;;;1.50;;
10303;SDS011;5197;48.152;8.590;2022-07-01T12:26:45;0.63;;;0.63;;
10303;SDS011;5197;48.152;8.590;2022-07-01T12:29:14;0.53;;;0.53;;
10303;SDS011;5197;48.152;8.590;2022-07-01T12:31:42;0.97;;;0.97;;
10303;SDS011;5197;48.152;8.590;2022-07-01T12:34:10;0.70;;;0.60;;
10303;SDS011;5197;48.152;8.590;2022-07-01T12:36:37;0.43;;;0.43;;
10303;SDS011;5197;48.152;8.590;2022-07-01T12:39:14;1.70;;;0.50;;
10303;SDS011;5197;48.152;8.590;2022-07-01T12:41:48;0.80;;;0.80;;
10303;SDS011;5197;48.152;8.590;2022-07-01T12:46:50;1.37;;;0.63;;
10303;SDS011;5197;48.152;8.590;2022-07-01T12:49:18;0.80;;;0.80;;
10303;SDS011;5197;48.152;8.590;2022-07-01T12:51:51;5.23;;;0.83;;
10303;SDS011;5197;48.152;8.590;2022-07-01T12:54:33;4.73;;;1.03;;
10303;SDS011;5197;48.152;8.590;2022-07-01T12:57:01;0.80;;;0.80;;
10303;SDS011;5197;48.152;8.590;2022-07-01T12:59:28;0.80;;;0.80;;
10303;SDS011;5197;48.152;8.590;2022-07-01T13:01:56;1.40;;;0.70;;
10303;SDS011;5197;48.152;8.590;2022-07-01T13:04:28;1.07;;;0.67;;
10303;SDS011;5197;48.152;8.590;2022-07-01T13:06:56;0.87;;;0.70;;
10303;SDS011;5197;48.152;8.590;2022-07-01T13:09:23;0.97;;;0.57;;
10303;SDS011;5197;48.152;8.590;2022-07-01T13:11:50;2.70;;;0.90;;
10303;SDS011;5197;48.152;8.590;2022-07-01T13:14:17;0.93;;;0.60;;
10303;SDS011;5197;48.152;8.590;2022-07-01T13:16:44;15.33;;;2.50;;
10303;SDS011;5197;48.152;8.590;2022-07-01T13:19:11;0.60;;;0.60;;
10303;SDS011;5197;48.152;8.590;2022-07-01T13:21:38;0.93;;;0.60;;
10303;SDS011;5197;48.152;8.590;2022-07-01T13:24:05;0.73;;;0.70;;
10303;SDS011;5197;48.152;8.590;2022-07-01T13:26:53;0.40;;;0.40;;
10303;SDS011;5197;48.152;8.590;2022-07-01T13:29:19;0.70;;;0.70;;
10303;SDS011;5197;48.152;8.590;2022-07-01T13:31:53;2.97;;;1.07;;
10303;SDS011;5197;48.152;8.590;2022-07-01T13:34:20;0.77;;;0.77;;
10303;SDS011;5197;48.152;8.590;2022-07-01T13:36:47;1.27;;;0.77;;
10303;SDS011;5197;48.152;8.590;2022-07-01T13:39:14;6.93;;;1.53;;
10303;SDS011;5197;48.152;8.590;2022-07-01T13:41:41;2.97;;;1.10;;
10303;SDS011;5197;48.152;8.590;2022-07-01T13:44:08;0.90;;;0.90;;
10303;SDS011;5197;48.152;8.590;2022-07-01T13:46:35;2.03;;;0.60;;
10303;SDS011;5197;48.152;8.590;2022-07-01T13:49:11;1.27;;;0.83;;
10303;SDS011;5197;48.152;8.590;2022-07-01T13:51:39;1.80;;;1.00;;
10303;SDS011;5197;48.152;8.590;2022-07-01T13:54:06;3.00;;;0.53;;
10303;SDS011;5197;48.152;8.590;2022-07-01T13:56:33;0.60;;;0.60;;
10303;SDS011;5197;48.152;8.590;2022-07-01T13:59:01;1.67;;;0.60;;
10303;SDS011;5197;48.152;8.590;2022-07-01T14:01:28;0.50;;;0.50;;
10303;SDS011;5197;48.152;8.590;2022-07-01T14:03:55;17.93;;;2.30;;
10303;SDS011;5197;48.152;8.590;2022-07-01T14:06:22;0.43;;;0.43;;
10303;SDS011;5197;48.152;8.590;2022-07-01T14:08:49;1.13;;;0.70;;
10303;SDS011;5197;48.152;8.590;2022-07-01T14:11:17;1.37;;;0.80;;
10303;SDS011;5197;48.152;8.590;2022-07-01T14:13:44;2.23;;;1.43;;
10303;SDS011;5197;48.152;8.590;2022-07-01T14:16:11;0.70;;;0.70;;
10303;SDS011;5197;48.152;8.590;2022-07-01T14:18:38;0.40;;;0.40;;
10303;SDS011;5197;48.152;8.590;2022-07-01T14:21:11;0.70;;;0.70;;
10303;SDS011;5197;48.152;8.590;2022-07-01T14:23:39;0.52;;;0.52;;
10303;SDS011;5197;48.152;8.590;2022-07-01T14:26:06;0.43;;;0.43;;
10303;SDS011;5197;48.152;8.590;2022-07-01T14:28:33;3.58;;;0.70;;
10303;SDS011;5197;48.152;8.590;2022-07-01T14:31:00;0.50;;;0.50;;
10303;SDS011;5197;48.152;8.590;2022-07-01T14:33:28;0.85;;;0.70;;
10303;SDS011;5197;48.152;8.590;2022-07-01T14:35:55;0.73;;;0.73;;
10303;SDS011;5197;48.152;8.590;2022-07-01T14:38:22;0.60;;;0.60;;
10303;SDS011;5197;48.152;8.590;2022-07-01T14:40:49;0.50;;;0.43;;
10303;SDS011;5197;48.152;8.590;2022-07-01T14:43:16;0.30;;;0.30;;
10303;SDS011;5197;48.152;8.590;2022-07-01T14:45:44;0.52;;;0.52;;
10303;SDS011;5197;48.152;8.590;2022-07-01T14:48:12;0.90;;;0.55;;
10303;SDS011;5197;48.152;8.590;2022-07-01T14:50:40;0.60;;;0.60;;
10303;SDS011;5197;48.152;8.590;2022-07-01T14:53:07;0.52;;;0.50;;
10303;SDS011;5197;48.152;8.590;2022-07-01T14:55:35;0.50;;;0.45;;
10303;SDS011;5197;48.152;8.590;2022-07-01T14:58:03;0.50;;;0.50;;
10303;SDS011;5197;48.152;8.590;2022-07-01T15:00:30;2.53;;;0.70;;
10303;SDS011;5197;48.152;8.590;2022-07-01T15:03:03;2.22;;;0.50;;
10303;SDS011;5197;48.152;8.590;2022-07-01T15:05:32;0.68;;;0.65;;
10303;SDS011;5197;48.152;8.590;2022-07-01T15:07:59;4.50;;;0.90;;
10303;SDS011;5197;48.152;8.590;2022-07-01T15:10:26;1.15;;;0.63;;
10303;SDS011;5197;48.152;8.590;2022-07-01T15:12:54;1.73;;;0.75;;
10303;SDS011;5197;48.152;8.590;2022-07-01T15:15:21;0.80;;;0.80;;
10303;SDS011;5197;48.152;8.590;2022-07-01T15:17:48;1.23;;;0.50;;
10303;SDS011;5197;48.152;8.590;2022-07-01T15:20:15;1.05;;;0.60;;
10303;SDS011;5197;48.152;8.590;2022-07-01T15:22:43;0.70;;;0.70;;
10303;SDS011;5197;48.152;8.590;2022-07-01T15:25:10;0.52;;;0.52;;
10303;SDS011;5197;48.152;8.590;2022-07-01T15:27:37;0.60;;;0.45;;
10303;SDS011;5197;48.152;8.590;2022-07-01T15:30:04;0.40;;;0.40;;
10303;SDS011;5197;48.152;8.590;2022-07-01T15:32:33;0.38;;;0.38;;
10303;SDS011;5197;48.152;8.590;2022-07-01T15:35:01;0.57;;;0.57;;
10303;SDS011;5197;48.152;8.590;2022-07-01T15:37:30;0.50;;;0.50;;
10303;SDS011;5197;48.152;8.590;2022-07-01T15:39:58;0.75;;;0.70;;
10303;SDS011;5197;48.152;8.590;2022-07-01T15:42:29;0.75;;;0.50;;
10303;SDS011;5197;48.152;8.590;2022-07-01T15:44:56;0.40;;;0.40;;
10303;SDS011;5197;48.152;8.590;2022-07-01T15:47:23;0.40;;;0.40;;
10303;SDS011;5197;48.152;8.590;2022-07-01T15:50:09;0.50;;;0.50;;